UAL1534 KRDU-KIAD
Flight info
| Callsign | UAL1534 |
|---|---|
| Flight time | 0h 41m |
| Altitude | 27000 |
| Route | OXFRD5 CARML DORRN CAVLR6 |
| Aircraft | B738/M-SDE2E3FGHIRWXY/LB1 |
Departure
| Time | 2026-05-07 02:18 |
|---|---|
| Airport | Raleigh-Durham International Airport (KRDU) |
Arrival
| Time | 2026-05-07 02:59 |
|---|---|
| Airport | Washington Dulles International Airport (KIAD) |
| Time | Latitude | Longitude | Altitude | Speed | Heading |
|---|---|---|---|---|---|
| 2026-05-07 01:50 | 35.87584 | -78.79628 | 419 ft | 0 kts | 135° |
| 2026-05-07 02:02 | 35.87588 | -78.79634 | 417 ft | 4 kts | 135° |
| 2026-05-07 02:03 | 35.87605 | -78.79655 | 413 ft | 2 kts | 135° |
| 2026-05-07 02:03 | 35.87619 | -78.79676 | 420 ft | 4 kts | 93° |
| 2026-05-07 02:03 | 35.87611 | -78.79699 | 415 ft | 4 kts | 45° |
| 2026-05-07 02:03 | 35.87599 | -78.79714 | 413 ft | 0 kts | 45° |
| 2026-05-07 02:05 | 35.87604 | -78.79707 | 413 ft | 4 kts | 45° |
| 2026-05-07 02:06 | 35.87634 | -78.79670 | 421 ft | 8 kts | 45° |
| 2026-05-07 02:06 | 35.87645 | -78.79657 | 413 ft | 0 kts | 45° |
| 2026-05-07 02:06 | 35.87647 | -78.79655 | 416 ft | 2 kts | 45° |
| 2026-05-07 02:07 | 35.87673 | -78.79622 | 425 ft | 7 kts | 45° |
| 2026-05-07 02:07 | 35.87738 | -78.79541 | 419 ft | 7 kts | 45° |
| 2026-05-07 02:07 | 35.87770 | -78.79502 | 423 ft | 6 kts | 45° |
| 2026-05-07 02:08 | 35.87802 | -78.79463 | 417 ft | 7 kts | 45° |
| 2026-05-07 02:08 | 35.87848 | -78.79406 | 425 ft | 12 kts | 45° |
| 2026-05-07 02:08 | 35.87923 | -78.79313 | 421 ft | 18 kts | 45° |
| 2026-05-07 02:08 | 35.88026 | -78.79184 | 423 ft | 23 kts | 45° |
| 2026-05-07 02:09 | 35.88138 | -78.79044 | 420 ft | 23 kts | 44° |
| 2026-05-07 02:09 | 35.88247 | -78.78908 | 424 ft | 22 kts | 45° |
| 2026-05-07 02:09 | 35.88353 | -78.78776 | 418 ft | 21 kts | 45° |
| 2026-05-07 02:09 | 35.88457 | -78.78649 | 421 ft | 21 kts | 45° |
| 2026-05-07 02:10 | 35.88556 | -78.78527 | 425 ft | 20 kts | 45° |
| 2026-05-07 02:10 | 35.88595 | -78.78478 | 421 ft | 2 kts | 45° |
| 2026-05-07 02:10 | 35.88626 | -78.78440 | 425 ft | 12 kts | 45° |
| 2026-05-07 02:10 | 35.88712 | -78.78332 | 422 ft | 21 kts | 45° |
| 2026-05-07 02:11 | 35.88816 | -78.78205 | 421 ft | 21 kts | 45° |
| 2026-05-07 02:11 | 35.88916 | -78.78081 | 420 ft | 20 kts | 45° |
| 2026-05-07 02:11 | 35.88989 | -78.77942 | 421 ft | 19 kts | 73° |
| 2026-05-07 02:11 | 35.89072 | -78.77816 | 425 ft | 19 kts | 47° |
| 2026-05-07 02:12 | 35.89160 | -78.77701 | 416 ft | 18 kts | 46° |
| 2026-05-07 02:12 | 35.89215 | -78.77646 | 420 ft | 0 kts | 7° |
| 2026-05-07 02:13 | 35.89224 | -78.77646 | 424 ft | 5 kts | 359° |
| 2026-05-07 02:13 | 35.89260 | -78.77676 | 415 ft | 7 kts | 314° |
| 2026-05-07 02:13 | 35.89262 | -78.77679 | 421 ft | 0 kts | 314° |
| 2026-05-07 02:14 | 35.89270 | -78.77690 | 419 ft | 4 kts | 314° |
| 2026-05-07 02:14 | 35.89304 | -78.77730 | 426 ft | 7 kts | 316° |
| 2026-05-07 02:15 | 35.89305 | -78.77732 | 426 ft | 0 kts | 316° |
| 2026-05-07 02:15 | 35.89307 | -78.77734 | 426 ft | 1 kts | 316° |
| 2026-05-07 02:15 | 35.89308 | -78.77735 | 426 ft | 0 kts | 316° |
| 2026-05-07 02:16 | 35.89322 | -78.77752 | 425 ft | 9 kts | 315° |
| 2026-05-07 02:16 | 35.89352 | -78.77835 | 418 ft | 12 kts | 249° |
| 2026-05-07 02:16 | 35.89323 | -78.77874 | 422 ft | 0 kts | 225° |
| 2026-05-07 02:17 | 35.89321 | -78.77875 | 423 ft | 3 kts | 225° |
| 2026-05-07 02:17 | 35.89148 | -78.78090 | 422 ft | 72 kts | 225° |
| 2026-05-07 02:17 | 35.88628 | -78.78734 | 425 ft | 136 kts | 225° |
| 2026-05-07 02:17 | 35.87877 | -78.79643 | 771 ft | 159 kts | 224° |
| 2026-05-07 02:18 | 35.87121 | -78.80562 | 1688 ft | 143 kts | 223° |
| 2026-05-07 02:18 | 35.86395 | -78.81399 | 2429 ft | 145 kts | 224° |
| 2026-05-07 02:18 | 35.85599 | -78.82333 | 2716 ft | 173 kts | 224° |
| 2026-05-07 02:18 | 35.84673 | -78.83439 | 2932 ft | 198 kts | 225° |
| 2026-05-07 02:19 | 35.83634 | -78.84669 | 3190 ft | 213 kts | 225° |
| 2026-05-07 02:19 | 35.82543 | -78.85932 | 3701 ft | 217 kts | 225° |
| 2026-05-07 02:19 | 35.81423 | -78.87186 | 4309 ft | 217 kts | 225° |
| 2026-05-07 02:19 | 35.80334 | -78.88426 | 4942 ft | 216 kts | 232° |
| 2026-05-07 02:20 | 35.79725 | -78.90100 | 5445 ft | 220 kts | 263° |
| 2026-05-07 02:20 | 35.79993 | -78.91948 | 5950 ft | 226 kts | 291° |
| 2026-05-07 02:20 | 35.80976 | -78.93502 | 5999 ft | 234 kts | 309° |
| 2026-05-07 02:20 | 35.82159 | -78.94905 | 5992 ft | 237 kts | 310° |
| 2026-05-07 02:21 | 35.83599 | -78.95969 | 6172 ft | 257 kts | 341° |
| 2026-05-07 02:21 | 35.85445 | -78.95883 | 6707 ft | 279 kts | 6° |
| 2026-05-07 02:21 | 35.87308 | -78.94933 | 7225 ft | 298 kts | 23° |
| 2026-05-07 02:21 | 35.89143 | -78.93680 | 7956 ft | 303 kts | 24° |
| 2026-05-07 02:22 | 35.90986 | -78.92381 | 8725 ft | 308 kts | 24° |
| 2026-05-07 02:22 | 35.92857 | -78.91058 | 9523 ft | 312 kts | 24° |
| 2026-05-07 02:22 | 35.94752 | -78.89723 | 10273 ft | 317 kts | 24° |
| 2026-05-07 02:22 | 35.96733 | -78.88339 | 10564 ft | 339 kts | 24° |
| 2026-05-07 02:23 | 35.98844 | -78.86872 | 10991 ft | 354 kts | 24° |
| 2026-05-07 02:23 | 36.00983 | -78.85382 | 11618 ft | 359 kts | 24° |
| 2026-05-07 02:23 | 36.03163 | -78.83861 | 11954 ft | 361 kts | 24° |
| 2026-05-07 02:23 | 36.05347 | -78.82338 | 11982 ft | 360 kts | 24° |
| 2026-05-07 02:24 | 36.07534 | -78.80814 | 11985 ft | 362 kts | 24° |
| 2026-05-07 02:24 | 36.09728 | -78.79287 | 11988 ft | 362 kts | 24° |
| 2026-05-07 02:24 | 36.11924 | -78.77758 | 11999 ft | 362 kts | 24° |
| 2026-05-07 02:24 | 36.14121 | -78.76228 | 11998 ft | 363 kts | 24° |
| 2026-05-07 02:25 | 36.16322 | -78.74695 | 11985 ft | 363 kts | 24° |
| 2026-05-07 02:25 | 36.18523 | -78.73161 | 11990 ft | 363 kts | 24° |
| 2026-05-07 02:25 | 36.20727 | -78.71624 | 11992 ft | 362 kts | 24° |
| 2026-05-07 02:25 | 36.22923 | -78.70092 | 12003 ft | 363 kts | 25° |
| 2026-05-07 02:26 | 36.25122 | -78.68557 | 12001 ft | 362 kts | 25° |
| 2026-05-07 02:26 | 36.27307 | -78.67029 | 11981 ft | 359 kts | 24° |
| 2026-05-07 02:26 | 36.29485 | -78.65507 | 11996 ft | 360 kts | 24° |
| 2026-05-07 02:26 | 36.31668 | -78.63980 | 12001 ft | 361 kts | 24° |
| 2026-05-07 02:27 | 36.33854 | -78.62450 | 12002 ft | 361 kts | 24° |
| 2026-05-07 02:27 | 36.36062 | -78.60970 | 11996 ft | 358 kts | 18° |
| 2026-05-07 02:27 | 36.38398 | -78.59995 | 12006 ft | 352 kts | 9° |
| 2026-05-07 02:27 | 36.40767 | -78.59224 | 12007 ft | 352 kts | 8° |
| 2026-05-07 02:28 | 36.43145 | -78.58450 | 12000 ft | 352 kts | 9° |
| 2026-05-07 02:28 | 36.45479 | -78.57652 | 12011 ft | 353 kts | 10° |
| 2026-05-07 02:28 | 36.47849 | -78.56818 | 11997 ft | 354 kts | 10° |
| 2026-05-07 02:28 | 36.50214 | -78.55974 | 12000 ft | 354 kts | 10° |
| 2026-05-07 02:29 | 36.52581 | -78.55125 | 11992 ft | 354 kts | 10° |
| 2026-05-07 02:29 | 36.54951 | -78.54274 | 12011 ft | 357 kts | 10° |
| 2026-05-07 02:29 | 36.57362 | -78.53409 | 12668 ft | 360 kts | 10° |
| 2026-05-07 02:29 | 36.59769 | -78.52544 | 13601 ft | 360 kts | 10° |
| 2026-05-07 02:30 | 36.62186 | -78.51674 | 14372 ft | 363 kts | 9° |
| 2026-05-07 02:30 | 36.64628 | -78.50797 | 15135 ft | 367 kts | 8° |
| 2026-05-07 02:30 | 36.67090 | -78.49911 | 15925 ft | 370 kts | 8° |
| 2026-05-07 02:30 | 36.69572 | -78.49018 | 16691 ft | 374 kts | 8° |
| 2026-05-07 02:31 | 36.72090 | -78.48111 | 17447 ft | 378 kts | 8° |
| 2026-05-07 02:31 | 36.74587 | -78.47162 | 18223 ft | 385 kts | 13° |
| 2026-05-07 02:31 | 36.76998 | -78.45552 | 18872 ft | 399 kts | 24° |
| 2026-05-07 02:31 | 36.79340 | -78.43650 | 19506 ft | 405 kts | 26° |
| 2026-05-07 02:32 | 36.81689 | -78.41675 | 20115 ft | 410 kts | 26° |
| 2026-05-07 02:32 | 36.84065 | -78.39672 | 20740 ft | 414 kts | 26° |
| 2026-05-07 02:32 | 36.86472 | -78.37660 | 21353 ft | 417 kts | 26° |
| 2026-05-07 02:32 | 36.88901 | -78.35651 | 21966 ft | 421 kts | 26° |
| 2026-05-07 02:33 | 36.91360 | -78.33633 | 22628 ft | 423 kts | 25° |
| 2026-05-07 02:33 | 36.93825 | -78.31618 | 23399 ft | 422 kts | 25° |
| 2026-05-07 02:33 | 36.96278 | -78.29614 | 24083 ft | 420 kts | 25° |
| 2026-05-07 02:33 | 36.97074 | -78.28965 | 24289 ft | 420 kts | 25° |
| 2026-05-07 02:34 | 36.99592 | -78.26912 | 24842 ft | 422 kts | 25° |
| 2026-05-07 02:34 | 37.02065 | -78.24898 | 25395 ft | 424 kts | 25° |
| 2026-05-07 02:35 | 37.04505 | -78.22908 | 25997 ft | 424 kts | 25° |
| 2026-05-07 02:35 | 37.06975 | -78.20890 | 26605 ft | 424 kts | 24° |
| 2026-05-07 02:35 | 37.09456 | -78.18863 | 26925 ft | 426 kts | 24° |
| 2026-05-07 02:35 | 37.11927 | -78.16839 | 26908 ft | 424 kts | 24° |
| 2026-05-07 02:36 | 37.14399 | -78.14814 | 26941 ft | 427 kts | 24° |
| 2026-05-07 02:36 | 37.16894 | -78.12771 | 26932 ft | 428 kts | 24° |
| 2026-05-07 02:36 | 37.18834 | -78.11180 | 26931 ft | 428 kts | 24° |
| 2026-05-07 02:36 | 37.21334 | -78.09127 | 26928 ft | 428 kts | 24° |
| 2026-05-07 02:37 | 37.23825 | -78.07079 | 26927 ft | 428 kts | 24° |
| 2026-05-07 02:37 | 37.26316 | -78.05031 | 26921 ft | 428 kts | 24° |
| 2026-05-07 02:37 | 37.28809 | -78.02979 | 26909 ft | 428 kts | 24° |
| 2026-05-07 02:37 | 37.31298 | -78.00929 | 26901 ft | 428 kts | 24° |
| 2026-05-07 02:38 | 37.33765 | -77.98898 | 26548 ft | 431 kts | 25° |
| 2026-05-07 02:38 | 37.36270 | -77.96880 | 26223 ft | 423 kts | 19° |
| 2026-05-07 02:38 | 37.38908 | -77.95445 | 25818 ft | 407 kts | 9° |
| 2026-05-07 02:38 | 37.41572 | -77.94336 | 25471 ft | 401 kts | 7° |
| 2026-05-07 02:39 | 37.44224 | -77.93276 | 25091 ft | 399 kts | 7° |
| 2026-05-07 02:39 | 37.46855 | -77.92187 | 24718 ft | 397 kts | 8° |
| 2026-05-07 02:39 | 37.49465 | -77.91058 | 24334 ft | 396 kts | 9° |
| 2026-05-07 02:39 | 37.52061 | -77.89913 | 23964 ft | 394 kts | 9° |
| 2026-05-07 02:40 | 37.54629 | -77.88672 | 23574 ft | 397 kts | 14° |
| 2026-05-07 02:40 | 37.57152 | -77.87238 | 23195 ft | 397 kts | 15° |
| 2026-05-07 02:40 | 37.59651 | -77.85756 | 22745 ft | 396 kts | 15° |
| 2026-05-07 02:40 | 37.62137 | -77.84300 | 22355 ft | 392 kts | 15° |
| 2026-05-07 02:41 | 37.64608 | -77.82875 | 21970 ft | 389 kts | 15° |
| 2026-05-07 02:41 | 37.67071 | -77.81479 | 21456 ft | 389 kts | 14° |
| 2026-05-07 02:41 | 37.69559 | -77.80104 | 20930 ft | 391 kts | 14° |
| 2026-05-07 02:41 | 37.71213 | -77.79195 | 20569 ft | 392 kts | 14° |
| 2026-05-07 02:42 | 37.73711 | -77.77818 | 20012 ft | 388 kts | 14° |
| 2026-05-07 02:42 | 37.76165 | -77.76456 | 19468 ft | 382 kts | 14° |
| 2026-05-07 02:42 | 37.78584 | -77.75111 | 18944 ft | 375 kts | 14° |
| 2026-05-07 02:42 | 37.81720 | -77.73368 | 18252 ft | 368 kts | 14° |
| 2026-05-07 02:43 | 37.83298 | -77.72491 | 17840 ft | 365 kts | 14° |
| 2026-05-07 02:43 | 37.85604 | -77.71208 | 17294 ft | 359 kts | 14° |
| 2026-05-07 02:43 | 37.87874 | -77.69943 | 16777 ft | 353 kts | 15° |
| 2026-05-07 02:43 | 37.90119 | -77.68693 | 16384 ft | 351 kts | 15° |
| 2026-05-07 02:44 | 37.92339 | -77.67458 | 15898 ft | 354 kts | 15° |
| 2026-05-07 02:44 | 37.94598 | -77.66200 | 15419 ft | 356 kts | 16° |
| 2026-05-07 02:44 | 37.96873 | -77.64930 | 14923 ft | 358 kts | 17° |
| 2026-05-07 02:44 | 37.99163 | -77.63650 | 14421 ft | 361 kts | 17° |
| 2026-05-07 02:45 | 38.01471 | -77.62358 | 13910 ft | 364 kts | 17° |
| 2026-05-07 02:45 | 38.03802 | -77.61053 | 13338 ft | 367 kts | 18° |
| 2026-05-07 02:45 | 38.06134 | -77.59736 | 12841 ft | 367 kts | 19° |
| 2026-05-07 02:45 | 38.08416 | -77.58310 | 12456 ft | 363 kts | 22° |
| 2026-05-07 02:46 | 38.10651 | -77.56856 | 12096 ft | 359 kts | 22° |
| 2026-05-07 02:46 | 38.12857 | -77.55429 | 11724 ft | 350 kts | 21° |
| 2026-05-07 02:46 | 38.14990 | -77.54061 | 11378 ft | 338 kts | 21° |
| 2026-05-07 02:46 | 38.17057 | -77.52743 | 11056 ft | 327 kts | 21° |
| 2026-05-07 02:47 | 38.19062 | -77.51462 | 10743 ft | 320 kts | 21° |
| 2026-05-07 02:47 | 38.21046 | -77.50196 | 10434 ft | 317 kts | 21° |
| 2026-05-07 02:47 | 38.23011 | -77.48939 | 10149 ft | 313 kts | 21° |
| 2026-05-07 02:47 | 38.24990 | -77.47831 | 9757 ft | 309 kts | 11° |
| 2026-05-07 02:48 | 38.27018 | -77.47112 | 9354 ft | 304 kts | 7° |
| 2026-05-07 02:48 | 38.29056 | -77.46456 | 8980 ft | 299 kts | 6° |
| 2026-05-07 02:48 | 38.31061 | -77.46050 | 8835 ft | 288 kts | 358° |
| 2026-05-07 02:48 | 38.33053 | -77.45873 | 8686 ft | 287 kts | 356° |
| 2026-05-07 02:49 | 38.35054 | -77.45726 | 8562 ft | 289 kts | 356° |
| 2026-05-07 02:49 | 38.37061 | -77.45565 | 8406 ft | 290 kts | 356° |
| 2026-05-07 02:49 | 38.39087 | -77.45385 | 8272 ft | 291 kts | 357° |
| 2026-05-07 02:49 | 38.41115 | -77.45195 | 8117 ft | 292 kts | 357° |
| 2026-05-07 02:50 | 38.43145 | -77.44996 | 7966 ft | 292 kts | 357° |
| 2026-05-07 02:50 | 38.45149 | -77.44854 | 7828 ft | 284 kts | 355° |
| 2026-05-07 02:50 | 38.47116 | -77.44794 | 7566 ft | 282 kts | 354° |
| 2026-05-07 02:50 | 38.49048 | -77.44752 | 7286 ft | 280 kts | 354° |
| 2026-05-07 02:51 | 38.50994 | -77.44707 | 7025 ft | 278 kts | 354° |
| 2026-05-07 02:51 | 38.52945 | -77.44611 | 6706 ft | 277 kts | 355° |
| 2026-05-07 02:51 | 38.54868 | -77.44551 | 6464 ft | 274 kts | 355° |
| 2026-05-07 02:51 | 38.56729 | -77.44149 | 6151 ft | 283 kts | 14° |
| 2026-05-07 02:52 | 38.58640 | -77.43832 | 5744 ft | 274 kts | 352° |
| 2026-05-07 02:52 | 38.60551 | -77.43979 | 5446 ft | 273 kts | 351° |
| 2026-05-07 02:52 | 38.62422 | -77.44095 | 5287 ft | 264 kts | 353° |
| 2026-05-07 02:52 | 38.64227 | -77.44152 | 4911 ft | 255 kts | 354° |
| 2026-05-07 02:53 | 38.65959 | -77.44174 | 4463 ft | 239 kts | 355° |
| 2026-05-07 02:53 | 38.67536 | -77.44155 | 4282 ft | 216 kts | 356° |
| 2026-05-07 02:53 | 38.68962 | -77.44126 | 4144 ft | 196 kts | 357° |
| 2026-05-07 02:53 | 38.70264 | -77.44097 | 4000 ft | 181 kts | 356° |
| 2026-05-07 02:54 | 38.71493 | -77.44064 | 3860 ft | 172 kts | 355° |
| 2026-05-07 02:54 | 38.72655 | -77.44028 | 3725 ft | 165 kts | 357° |
| 2026-05-07 02:54 | 38.73789 | -77.43976 | 3631 ft | 160 kts | 356° |
| 2026-05-07 02:54 | 38.74908 | -77.43939 | 3443 ft | 158 kts | 356° |
| 2026-05-07 02:55 | 38.75988 | -77.43908 | 3301 ft | 153 kts | 358° |
| 2026-05-07 02:55 | 38.77034 | -77.43882 | 3255 ft | 149 kts | 358° |
| 2026-05-07 02:55 | 38.78103 | -77.43863 | 3080 ft | 154 kts | 358° |
| 2026-05-07 02:55 | 38.79152 | -77.43844 | 2868 ft | 147 kts | 358° |
| 2026-05-07 02:56 | 38.80149 | -77.43829 | 2685 ft | 141 kts | 360° |
| 2026-05-07 02:56 | 38.81094 | -77.43811 | 2499 ft | 131 kts | 359° |
| 2026-05-07 02:56 | 38.81999 | -77.43799 | 2339 ft | 131 kts | 359° |
| 2026-05-07 02:56 | 38.82914 | -77.43787 | 2186 ft | 132 kts | 359° |
| 2026-05-07 02:57 | 38.83841 | -77.43774 | 2003 ft | 134 kts | 360° |
| 2026-05-07 02:57 | 38.84768 | -77.43759 | 1819 ft | 130 kts | 359° |
| 2026-05-07 02:57 | 38.85657 | -77.43746 | 1641 ft | 127 kts | 0° |
| 2026-05-07 02:57 | 38.86547 | -77.43732 | 1468 ft | 130 kts | 0° |
| 2026-05-07 02:58 | 38.87454 | -77.43719 | 1304 ft | 130 kts | 360° |
| 2026-05-07 02:58 | 38.88375 | -77.43708 | 1132 ft | 132 kts | 359° |
| 2026-05-07 02:58 | 38.89309 | -77.43705 | 935 ft | 134 kts | 359° |
| 2026-05-07 02:58 | 38.90264 | -77.43684 | 742 ft | 144 kts | 359° |
| 2026-05-07 02:59 | 38.91263 | -77.43659 | 583 ft | 139 kts | 358° |
| 2026-05-07 02:59 | 38.92196 | -77.43648 | 379 ft | 131 kts | 360° |
| 2026-05-07 02:59 | 38.93070 | -77.43634 | 306 ft | 112 kts | 2° |
| 2026-05-07 02:59 | 38.93672 | -77.43626 | 303 ft | 47 kts | 0° |
| 2026-05-07 03:00 | 38.93935 | -77.43673 | 303 ft | 34 kts | 340° |
| 2026-05-07 03:00 | 38.94035 | -77.43736 | 298 ft | 3 kts | 330° |
| 2026-05-07 03:00 | 38.94068 | -77.43761 | 299 ft | 8 kts | 330° |
| 2026-05-07 03:00 | 38.94125 | -77.43802 | 299 ft | 10 kts | 330° |
| 2026-05-07 03:01 | 38.94189 | -77.43839 | 295 ft | 10 kts | 343° |
| 2026-05-07 03:01 | 38.94255 | -77.43861 | 295 ft | 10 kts | 346° |
| 2026-05-07 03:01 | 38.94325 | -77.43868 | 294 ft | 11 kts | 360° |
| 2026-05-07 03:01 | 38.94405 | -77.43899 | 293 ft | 13 kts | 296° |
| 2026-05-07 03:02 | 38.94407 | -77.44009 | 292 ft | 12 kts | 271° |
| 2026-05-07 03:02 | 38.94409 | -77.44119 | 291 ft | 12 kts | 271° |
| 2026-05-07 03:02 | 38.94411 | -77.44227 | 295 ft | 12 kts | 271° |
| 2026-05-07 03:02 | 38.94411 | -77.44331 | 294 ft | 12 kts | 269° |
| 2026-05-07 03:03 | 38.94411 | -77.44432 | 296 ft | 11 kts | 270° |
| 2026-05-07 03:03 | 38.94412 | -77.44531 | 294 ft | 11 kts | 271° |
| 2026-05-07 03:03 | 38.94414 | -77.44627 | 293 ft | 11 kts | 271° |
| 2026-05-07 03:03 | 38.94414 | -77.44722 | 293 ft | 12 kts | 271° |
| 2026-05-07 03:04 | 38.94416 | -77.44861 | 291 ft | 19 kts | 270° |
| 2026-05-07 03:04 | 38.94418 | -77.45061 | 291 ft | 24 kts | 270° |
| 2026-05-07 03:04 | 38.94418 | -77.45242 | 291 ft | 13 kts | 270° |
| 2026-05-07 03:04 | 38.94420 | -77.45356 | 291 ft | 13 kts | 271° |
| 2026-05-07 03:05 | 38.94443 | -77.45404 | 293 ft | 4 kts | 346° |
| 2026-05-07 03:05 | 38.94471 | -77.45418 | 295 ft | 4 kts | 341° |
| 2026-05-07 03:05 | 38.94474 | -77.45419 | 294 ft | 1 kts | 342° |
| 2026-05-07 03:05 | 38.94494 | -77.45419 | 294 ft | 1 kts | 1° |
| 2026-05-07 03:06 | 38.94495 | -77.45419 | 294 ft | 0 kts | 1° |
| 2026-05-07 03:06 | 38.94494 | -77.45410 | 295 ft | 0 kts | 9° |
| 2026-05-07 03:06 | 38.94589 | -77.45483 | 294 ft | 0 kts | 179° |
| 2026-05-07 03:07 | 38.94487 | -77.44145 | 295 ft | 0 kts | 22° |
| 2026-05-07 03:07 | 38.94810 | -77.45038 | 295 ft | 0 kts | 27° |